Terminal Aerodrome Forecast
Issued by NWS Melbourne, FL

Home | Current Version | Previous Version | Text Only | Print | Product List | Glossary On
Versions: 1 2 3 4 5 6 7 8 9 10 11 12 13 14 15 16 17 18 19 20 21 22
000
FTUS42 KMLB 261600 AAB
TAFVRB
TAF AMD
KVRB 261609Z 2616/2712 31010KT P6SM SCT005 OVC040
      TEMPO 2616/2618 BKN005
     FM261800 32012G18KT P6SM SCT025 BKN040 OVC250
     FM262300 31010KT P6SM BKN250=

USA.gov is the U.S. government's official web portal to all federal, state and local government web resources and services.